Nonogasta, Argentina
Current Conditions -  °F | °C
As of 2:00 AM on Monday 22 Dec 2014 (Local Time) from SANT Reporting Station
Drizzle Drizzle  
Wind Chill: 61°   Ceiling: 1200
Heat Index: 61°   Visibility: 2.5mi
Dew Point: 57°   Wind: 8mph
Humidity: 88%   Direction: 140°SE
Pressure: 30.09"   Gusts: NA
Location:  29.3°S, 67.5°W
Report Text: SANT 220500Z 14007KT 4000 -DZ SCT008 BKN012OVC040 16/14 Q1019
Loading
Personal Weather Stations






























Interactive Weather Map New forecast layout! Learn more

10-Day Weather Forecast

Advertisements
Track Severe Weather on mobile